Airfield :
LOGIN :

Register | Disclaimer

   EN    FR    IT 

 










Legend :    VFR   Marginal VFR   IFR   Intensive IFR   Very Intensive IFR
Visi :
Ceiling :
>= 8 km
>= 3000ft
5 to 8 km
1000 to 3000 ft
1500m to 5 km
500 to 1000 ft
800 to 1500m
200 to 500 ft
< 800m
< 200 ft
Symbols :   Thunderstorms  Fog  Heavy snow  Heavy precipitations  Wind > 20 kt
SIGMETs :     Misc.  Thunderstorms  Icing  Turbulence  Mountain Waves  Volcanic Ashes






- Airport Elevation : 138 ft
- IATA code : RLG


ETNL - Rostock Laage

CURRENT METAR :
  • 280720Z 28015KT 9999 -RA SCT017 BKN033 10/07 Q1009 RERA BLU

EXPIRED METARs :
  • 280620Z 27016KT 9999 BKN017 BKN047 10/07 Q1008 WHT
  • 280520Z 26015KT 9999 FEW013 SCT025 BKN046 09/06 Q1008 BLU

TAF TAF ETNL
Valid from the 28 at 05:00 until the 28 at 17:00 UTC


280409Z 2805/2817 28018G28KT 9999 NSW SCT020 BKN030
PROB30 2805/2808 29020G35KT 4000 SHRA BKN012CB
TEMPO 2808/2811 29020G35KT 4000 SHRA BKN014TCU BY ETGL



MET'MAP, your aeronautical weather chart ! - Copyright ORBIFLY December 2007 - Disclaimer

ORBIFLY MET'MAP TEAM :

Programming & Development : Alexandra Zaïnal
Original concept : Baudouin d'Aumeries
Technical & hardware support : Manuel Goepfert
Assistance : Marc-Olivier Méhu

Contact : metmap@orbifly.com




SOURCES & CREDITS :

   NOAA